PWSweather.com
Personal Weather Stations
Station Observations
PICKERING
North Yorkshire, PickeringGB

North YorkshirePickeringGB

Lat: 54.2494, Lon: -0.7725

Elevation: 192

Station Type: Oregon Scientific WMR100

http://www.yorkshirewalker.co.uk/weather/

High Low Average
Temperature 39.9°F4.4°C 36.7°F2.6°C 38.5°F3.6°C
Dew Point 35.6°F2.0°C 32.0°F0.0°C 33.5°F0.8°C
Winds 4.2 mph 6.8 kmh Calm Calm 1.0 mph SE1.6 kmh SE
Wind Gusts 9.8 mph15.8 kmh -- 3.0 mph4.8 kmh
Humidity 85% 78% 82%
Pressure 30.09 in1019.0 mb 29.62 in1003.0 mb -
Precipitation 0.00 in0.0 mm - -
Hour Temp Dew Point Humidity Winds Wind Gusts Pressure Precip Precip Rate Daily Precip Total
12:00 AM 38.3°F3.5°C 32.0°F0.0°C 78% 2.6 mph E4.2 kmh E 4.9 mph7.9 kmh 30.09 in1019.0 mb 0.00 in0.0 mm 0.00 in0.0 mm 0.00 in0.0 mm
12:05 AM 38.3°F3.5°C 32.0°F0.0°C 78% 2.3 mph E3.7 kmh E 4.0 mph6.4 kmh 30.07 in1018.3 mb 0.00 in0.0 mm 0.00 in0.0 mm 0.00 in0.0 mm
12:10 AM 38.3°F3.5°C 32.0°F0.0°C 78% 2.1 mph E3.4 kmh E 4.0 mph6.4 kmh 30.07 in1018.3 mb 0.00 in0.0 mm 0.00 in0.0 mm 0.00 in0.0 mm
12:15 AM 38.3°F3.5°C 32.0°F0.0°C 78% 1.9 mph E3.1 kmh E 3.4 mph5.5 kmh 30.07 in1018.3 mb 0.00 in0.0 mm 0.00 in0.0 mm 0.00 in0.0 mm
12:20 AM 38.3°F3.5°C 32.0°F0.0°C 78% 1.7 mph E2.7 kmh E 3.4 mph5.5 kmh 30.07 in1018.3 mb 0.00 in0.0 mm 0.00 in0.0 mm 0.00 in0.0 mm
12:25 AM 38.3°F3.5°C 32.0°F0.0°C 78% 2.4 mph E3.9 kmh E 4.9 mph7.9 kmh 30.07 in1018.3 mb 0.00 in0.0 mm 0.00 in0.0 mm 0.00 in0.0 mm
12:30 AM 38.3°F3.5°C 32.0°F0.0°C 78% 3.4 mph E5.5 kmh E 6.5 mph10.5 kmh 30.07 in1018.3 mb 0.00 in0.0 mm 0.00 in0.0 mm 0.00 in0.0 mm
12:35 AM 38.3°F3.5°C 32.0°F0.0°C 78% 2.6 mph ESE4.2 kmh ESE 6.5 mph10.5 kmh 30.07 in1018.3 mb 0.00 in0.0 mm 0.00 in0.0 mm 0.00 in0.0 mm
12:40 AM 38.5°F3.6°C 32.0°F0.0°C 78% 1.0 mph ESE1.6 kmh ESE 4.9 mph7.9 kmh 30.07 in1018.3 mb 0.00 in0.0 mm 0.00 in0.0 mm 0.00 in0.0 mm
12:45 AM 38.5°F3.6°C 32.0°F0.0°C 78% 2.0 mph ESE3.2 kmh ESE 5.8 mph9.3 kmh 30.07 in1018.3 mb 0.00 in0.0 mm 0.00 in0.0 mm 0.00 in0.0 mm
12:50 AM 38.5°F3.6°C 32.0°F0.0°C 78% 1.3 mph ESE2.1 kmh ESE 5.8 mph9.3 kmh 30.07 in1018.3 mb 0.00 in0.0 mm 0.00 in0.0 mm 0.00 in0.0 mm
12:55 AM 38.3°F3.5°C 32.0°F0.0°C 78% 0.7 mph SSW1.1 kmh SSW 2.9 mph4.7 kmh 30.07 in1018.3 mb 0.00 in0.0 mm 0.00 in0.0 mm 0.00 in0.0 mm
01:00 AM 38.3°F3.5°C 32.0°F0.0°C 79% 1.1 mph ESE1.8 kmh ESE 3.4 mph5.5 kmh 30.07 in1018.3 mb 0.00 in0.0 mm 0.00 in0.0 mm 0.00 in0.0 mm
01:05 AM 38.3°F3.5°C 32.0°F0.0°C 79% 0.7 mph E1.1 kmh E 3.4 mph5.5 kmh 30.04 in1017.3 mb 0.00 in0.0 mm 0.00 in0.0 mm 0.00 in0.0 mm
01:10 AM 38.3°F3.5°C 32.0°F0.0°C 79% 0.5 mph ESE0.8 kmh ESE 1.6 mph2.6 kmh 30.04 in1017.3 mb 0.00 in0.0 mm 0.00 in0.0 mm 0.00 in0.0 mm
01:15 AM 38.3°F3.5°C 32.0°F0.0°C 79% 0.6 mph ESE1.0 kmh ESE 1.6 mph2.6 kmh 30.04 in1017.3 mb 0.00 in0.0 mm 0.00 in0.0 mm 0.00 in0.0 mm
01:20 AM 38.5°F3.6°C 32.0°F0.0°C 79% 2.1 mph ESE3.4 kmh ESE 6.0 mph9.7 kmh 30.04 in1017.3 mb 0.00 in0.0 mm 0.00 in0.0 mm 0.00 in0.0 mm
01:25 AM 38.3°F3.5°C 32.0°F0.0°C 79% 2.2 mph E3.5 kmh E 6.0 mph9.7 kmh 30.04 in1017.3 mb 0.00 in0.0 mm 0.00 in0.0 mm 0.00 in0.0 mm
01:30 AM 38.3°F3.5°C 32.0°F0.0°C 79% 1.2 mph E1.9 kmh E 3.6 mph5.8 kmh 30.04 in1017.3 mb 0.00 in0.0 mm 0.00 in0.0 mm 0.00 in0.0 mm
01:35 AM 38.3°F3.5°C 32.0°F0.0°C 79% 1.7 mph ESE2.7 kmh ESE 3.4 mph5.5 kmh 30.04 in1017.3 mb 0.00 in0.0 mm 0.00 in0.0 mm 0.00 in0.0 mm
01:40 AM 38.3°F3.5°C 32.0°F0.0°C 79% 1.2 mph SE1.9 kmh SE 3.1 mph5.0 kmh 30.04 in1017.3 mb 0.00 in0.0 mm 0.00 in0.0 mm 0.00 in0.0 mm
01:45 AM 38.3°F3.5°C 32.0°F0.0°C 79% 0.8 mph ESE1.3 kmh ESE 3.1 mph5.0 kmh 30.04 in1017.3 mb 0.00 in0.0 mm 0.00 in0.0 mm 0.00 in0.0 mm
01:50 AM 38.3°F3.5°C 32.0°F0.0°C 79% 0.9 mph E1.4 kmh E 2.5 mph4.0 kmh 30.04 in1017.3 mb 0.00 in0.0 mm 0.00 in0.0 mm 0.00 in0.0 mm
01:55 AM 38.3°F3.5°C 32.0°F0.0°C 79% 0.9 mph ESE1.4 kmh ESE 2.2 mph3.5 kmh 30.04 in1017.3 mb 0.00 in0.0 mm 0.00 in0.0 mm 0.00 in0.0 mm
02:00 AM 38.3°F3.5°C 32.0°F0.0°C 79% 0.9 mph E1.4 kmh E 2.2 mph3.5 kmh 30.04 in1017.3 mb 0.00 in0.0 mm 0.00 in0.0 mm 0.00 in0.0 mm
02:05 AM 38.3°F3.5°C 32.0°F0.0°C 79% 1.2 mph E1.9 kmh E 4.7 mph7.6 kmh 30.01 in1016.3 mb 0.00 in0.0 mm 0.00 in0.0 mm 0.00 in0.0 mm
02:10 AM 38.3°F3.5°C 32.0°F0.0°C 79% 1.3 mph SE2.1 kmh SE 4.7 mph7.6 kmh 30.01 in1016.3 mb 0.00 in0.0 mm 0.00 in0.0 mm 0.00 in0.0 mm
02:15 AM 38.1°F3.4°C 32.0°F0.0°C 79% 1.5 mph SSE2.4 kmh SSE 4.3 mph6.9 kmh 30.01 in1016.3 mb 0.00 in0.0 mm 0.00 in0.0 mm 0.00 in0.0 mm
02:20 AM 38.3°F3.5°C 32.0°F0.0°C 79% 1.3 mph SSE2.1 kmh SSE 3.4 mph5.5 kmh 30.01 in1016.3 mb 0.00 in0.0 mm 0.00 in0.0 mm 0.00 in0.0 mm
02:25 AM 38.3°F3.5°C 32.0°F0.0°C 79% 1.4 mph E2.3 kmh E 3.4 mph5.5 kmh 30.01 in1016.3 mb 0.00 in0.0 mm 0.00 in0.0 mm 0.00 in0.0 mm
02:30 AM 38.1°F3.4°C 32.0°F0.0°C 79% 1.0 mph E1.6 kmh E 3.4 mph5.5 kmh 30.01 in1016.3 mb 0.00 in0.0 mm 0.00 in0.0 mm 0.00 in0.0 mm
02:35 AM 38.1°F3.4°C 32.0°F0.0°C 79% 0.3 mph E0.5 kmh E 2.2 mph3.5 kmh 30.01 in1016.3 mb 0.00 in0.0 mm 0.00 in0.0 mm 0.00 in0.0 mm
02:40 AM 38.1°F3.4°C 32.0°F0.0°C 79% 0.5 mph E0.8 kmh E 2.2 mph3.5 kmh 30.01 in1016.3 mb 0.00 in0.0 mm 0.00 in0.0 mm 0.00 in0.0 mm
02:45 AM 38.1°F3.4°C 32.0°F0.0°C 79% 0.8 mph ESE1.3 kmh ESE 2.5 mph4.0 kmh 30.01 in1016.3 mb 0.00 in0.0 mm 0.00 in0.0 mm 0.00 in0.0 mm
02:50 AM 38.1°F3.4°C 32.0°F0.0°C 79% 0.8 mph ESE1.3 kmh ESE 2.5 mph4.0 kmh 30.01 in1016.3 mb 0.00 in0.0 mm 0.00 in0.0 mm 0.00 in0.0 mm
02:55 AM 38.1°F3.4°C 32.0°F0.0°C 79% 0.5 mph ESE0.8 kmh ESE 1.3 mph2.1 kmh 30.01 in1016.3 mb 0.00 in0.0 mm 0.00 in0.0 mm 0.00 in0.0 mm
03:00 AM 38.1°F3.4°C 32.0°F0.0°C 79% 0.9 mph ESE1.4 kmh ESE 3.4 mph5.5 kmh 30.01 in1016.3 mb 0.00 in0.0 mm 0.00 in0.0 mm 0.00 in0.0 mm
03:05 AM 38.1°F3.4°C 32.0°F0.0°C 79% 1.1 mph ESE1.8 kmh ESE 3.4 mph5.5 kmh 29.98 in1015.2 mb 0.00 in0.0 mm 0.00 in0.0 mm 0.00 in0.0 mm
03:10 AM 38.1°F3.4°C 32.0°F0.0°C 79% 1.0 mph ESE1.6 kmh ESE 3.4 mph5.5 kmh 29.98 in1015.2 mb 0.00 in0.0 mm 0.00 in0.0 mm 0.00 in0.0 mm
03:15 AM 38.1°F3.4°C 32.0°F0.0°C 79% 0.7 mph E1.1 kmh E 2.5 mph4.0 kmh 29.98 in1015.2 mb 0.00 in0.0 mm 0.00 in0.0 mm 0.00 in0.0 mm
03:20 AM 38.1°F3.4°C 32.0°F0.0°C 79% 0.3 mph E0.5 kmh E 2.0 mph3.2 kmh 29.98 in1015.2 mb 0.00 in0.0 mm 0.00 in0.0 mm 0.00 in0.0 mm
03:25 AM 37.9°F3.3°C 32.0°F0.0°C 79% Calm Calm -- 29.98 in1015.2 mb 0.00 in0.0 mm 0.00 in0.0 mm 0.00 in0.0 mm
03:30 AM 37.9°F3.3°C 32.0°F0.0°C 79% 0.4 mph E0.6 kmh E 2.0 mph3.2 kmh 29.98 in1015.2 mb 0.00 in0.0 mm 0.00 in0.0 mm 0.00 in0.0 mm
03:35 AM 37.9°F3.3°C 32.0°F0.0°C 79% 0.8 mph E1.3 kmh E 2.0 mph3.2 kmh 29.98 in1015.2 mb 0.00 in0.0 mm 0.00 in0.0 mm 0.00 in0.0 mm
03:40 AM 37.9°F3.3°C 32.0°F0.0°C 80% 0.6 mph E1.0 kmh E 1.3 mph2.1 kmh 29.98 in1015.2 mb 0.00 in0.0 mm 0.00 in0.0 mm 0.00 in0.0 mm
03:45 AM 37.9°F3.3°C 32.0°F0.0°C 80% 0.6 mph E1.0 kmh E 1.3 mph2.1 kmh 29.98 in1015.2 mb 0.00 in0.0 mm 0.00 in0.0 mm 0.00 in0.0 mm
03:50 AM 37.9°F3.3°C 32.0°F0.0°C 80% 0.5 mph E0.8 kmh E 1.3 mph2.1 kmh 29.95 in1014.2 mb 0.00 in0.0 mm 0.00 in0.0 mm 0.00 in0.0 mm
03:55 AM 37.9°F3.3°C 32.0°F0.0°C 80% 0.4 mph SE0.6 kmh SE 1.3 mph2.1 kmh 29.95 in1014.2 mb 0.00 in0.0 mm 0.00 in0.0 mm 0.00 in0.0 mm
04:00 AM 37.9°F3.3°C 32.0°F0.0°C 80% 0.5 mph ESE0.8 kmh ESE 1.1 mph1.8 kmh 29.95 in1014.2 mb 0.00 in0.0 mm 0.00 in0.0 mm 0.00 in0.0 mm
04:05 AM 38.1°F3.4°C 33.8°F1.0°C 80% 0.7 mph ESE1.1 kmh ESE 2.5 mph4.0 kmh 29.95 in1014.2 mb 0.00 in0.0 mm 0.00 in0.0 mm 0.00 in0.0 mm
04:10 AM 38.1°F3.4°C 33.8°F1.0°C 80% 0.8 mph SE1.3 kmh SE 2.5 mph4.0 kmh 29.95 in1014.2 mb 0.00 in0.0 mm 0.00 in0.0 mm 0.00 in0.0 mm
04:15 AM 37.9°F3.3°C 32.0°F0.0°C 80% 0.4 mph SE0.6 kmh SE 2.5 mph4.0 kmh 29.95 in1014.2 mb 0.00 in0.0 mm 0.00 in0.0 mm 0.00 in0.0 mm
04:20 AM 38.1°F3.4°C 33.8°F1.0°C 80% 0.1 mph E0.2 kmh E 1.6 mph2.6 kmh 29.95 in1014.2 mb 0.00 in0.0 mm 0.00 in0.0 mm 0.00 in0.0 mm
04:25 AM 37.9°F3.3°C 32.0°F0.0°C 80% 0.1 mph E0.2 kmh E 1.6 mph2.6 kmh 29.95 in1014.2 mb 0.00 in0.0 mm 0.00 in0.0 mm 0.00 in0.0 mm
04:30 AM 37.9°F3.3°C 32.0°F0.0°C 80% 0.4 mph ESE0.6 kmh ESE 1.3 mph2.1 kmh 29.95 in1014.2 mb 0.00 in0.0 mm 0.00 in0.0 mm 0.00 in0.0 mm
04:35 AM 37.9°F3.3°C 32.0°F0.0°C 80% 0.6 mph E1.0 kmh E 1.3 mph2.1 kmh 29.95 in1014.2 mb 0.00 in0.0 mm 0.00 in0.0 mm 0.00 in0.0 mm
04:40 AM 37.9°F3.3°C 32.0°F0.0°C 80% 1.1 mph E1.8 kmh E 3.1 mph5.0 kmh 29.95 in1014.2 mb 0.00 in0.0 mm 0.00 in0.0 mm 0.00 in0.0 mm
04:45 AM 37.9°F3.3°C 32.0°F0.0°C 80% 1.9 mph E3.1 kmh E 3.1 mph5.0 kmh 29.95 in1014.2 mb 0.00 in0.0 mm 0.00 in0.0 mm 0.00 in0.0 mm
04:50 AM 37.9°F3.3°C 32.0°F0.0°C 80% 2.1 mph E3.4 kmh E 3.1 mph5.0 kmh 29.92 in1013.2 mb 0.00 in0.0 mm 0.00 in0.0 mm 0.00 in0.0 mm
04:55 AM 37.9°F3.3°C 32.0°F0.0°C 80% 2.2 mph E3.5 kmh E 3.4 mph5.5 kmh 29.92 in1013.2 mb 0.00 in0.0 mm 0.00 in0.0 mm 0.00 in0.0 mm
05:00 AM 37.9°F3.3°C 32.0°F0.0°C 80% 1.6 mph E2.6 kmh E 3.4 mph5.5 kmh 29.92 in1013.2 mb 0.00 in0.0 mm 0.00 in0.0 mm 0.00 in0.0 mm
05:05 AM 38.1°F3.4°C 33.8°F1.0°C 80% 0.9 mph ESE1.4 kmh ESE 3.4 mph5.5 kmh 29.92 in1013.2 mb 0.00 in0.0 mm 0.00 in0.0 mm 0.00 in0.0 mm
05:10 AM 38.1°F3.4°C 33.8°F1.0°C 80% 0.7 mph ESE1.1 kmh ESE 3.4 mph5.5 kmh 29.92 in1013.2 mb 0.00 in0.0 mm 0.00 in0.0 mm 0.00 in0.0 mm
05:15 AM 38.1°F3.4°C 33.8°F1.0°C 80% 1.5 mph E2.4 kmh E 4.3 mph6.9 kmh 29.92 in1013.2 mb 0.00 in0.0 mm 0.00 in0.0 mm 0.00 in0.0 mm
05:20 AM 38.1°F3.4°C 33.8°F1.0°C 80% 2.2 mph E3.5 kmh E 4.3 mph6.9 kmh 29.92 in1013.2 mb 0.00 in0.0 mm 0.00 in0.0 mm 0.00 in0.0 mm
05:25 AM 38.1°F3.4°C 33.8°F1.0°C 80% 1.9 mph E3.1 kmh E 5.6 mph9.0 kmh 29.92 in1013.2 mb 0.00 in0.0 mm 0.00 in0.0 mm 0.00 in0.0 mm
05:30 AM 38.3°F3.5°C 33.8°F1.0°C 80% 2.0 mph E3.2 kmh E 5.6 mph9.0 kmh 29.92 in1013.2 mb 0.00 in0.0 mm 0.00 in0.0 mm 0.00 in0.0 mm
05:35 AM 38.3°F3.5°C 33.8°F1.0°C 80% 1.7 mph E2.7 kmh E 3.8 mph6.1 kmh 29.92 in1013.2 mb 0.00 in0.0 mm 0.00 in0.0 mm 0.00 in0.0 mm
05:40 AM 38.3°F3.5°C 33.8°F1.0°C 80% 1.6 mph E2.6 kmh E 3.8 mph6.1 kmh 29.92 in1013.2 mb 0.00 in0.0 mm 0.00 in0.0 mm 0.00 in0.0 mm
05:45 AM 38.3°F3.5°C 33.8°F1.0°C 80% 1.4 mph ESE2.3 kmh ESE 2.5 mph4.0 kmh 29.92 in1013.2 mb 0.00 in0.0 mm 0.00 in0.0 mm 0.00 in0.0 mm
05:50 AM 38.5°F3.6°C 33.8°F1.0°C 80% 2.3 mph E3.7 kmh E 7.8 mph12.6 kmh 29.92 in1013.2 mb 0.00 in0.0 mm 0.00 in0.0 mm 0.00 in0.0 mm
05:55 AM 38.5°F3.6°C 33.8°F1.0°C 80% 2.0 mph E3.2 kmh E 7.8 mph12.6 kmh 29.92 in1013.2 mb 0.00 in0.0 mm 0.00 in0.0 mm 0.00 in0.0 mm
06:00 AM 38.5°F3.6°C 33.8°F1.0°C 80% 0.9 mph SE1.4 kmh SE 3.1 mph5.0 kmh 29.92 in1013.2 mb 0.00 in0.0 mm 0.00 in0.0 mm 0.00 in0.0 mm
06:05 AM 38.5°F3.6°C 33.8°F1.0°C 80% 2.3 mph E3.7 kmh E 5.6 mph9.0 kmh 29.89 in1012.2 mb 0.00 in0.0 mm 0.00 in0.0 mm 0.00 in0.0 mm
06:10 AM 38.5°F3.6°C 33.8°F1.0°C 80% 2.9 mph E4.7 kmh E 6.5 mph10.5 kmh 29.89 in1012.2 mb 0.00 in0.0 mm 0.00 in0.0 mm 0.00 in0.0 mm
06:15 AM 38.5°F3.6°C 33.8°F1.0°C 80% 2.6 mph E4.2 kmh E 6.5 mph10.5 kmh 29.89 in1012.2 mb 0.00 in0.0 mm 0.00 in0.0 mm 0.00 in0.0 mm
06:20 AM 38.5°F3.6°C 33.8°F1.0°C 80% 2.7 mph ESE4.3 kmh ESE 5.6 mph9.0 kmh 29.89 in1012.2 mb 0.00 in0.0 mm 0.00 in0.0 mm 0.00 in0.0 mm
06:25 AM 38.7°F3.7°C 33.8°F1.0°C 81% 3.0 mph ESE4.8 kmh ESE 6.5 mph10.5 kmh 29.89 in1012.2 mb 0.00 in0.0 mm 0.00 in0.0 mm 0.00 in0.0 mm
06:30 AM 38.7°F3.7°C 33.8°F1.0°C 81% 2.2 mph ESE3.5 kmh ESE 6.5 mph10.5 kmh 29.89 in1012.2 mb 0.00 in0.0 mm 0.00 in0.0 mm 0.00 in0.0 mm
06:35 AM 38.7°F3.7°C 33.8°F1.0°C 81% 1.5 mph ESE2.4 kmh ESE 3.8 mph6.1 kmh 29.89 in1012.2 mb 0.00 in0.0 mm 0.00 in0.0 mm 0.00 in0.0 mm
06:40 AM 38.7°F3.7°C 33.8°F1.0°C 81% 1.6 mph E2.6 kmh E 3.8 mph6.1 kmh 29.89 in1012.2 mb 0.00 in0.0 mm 0.00 in0.0 mm 0.00 in0.0 mm
06:45 AM 38.7°F3.7°C 33.8°F1.0°C 81% 2.1 mph ESE3.4 kmh ESE 3.8 mph6.1 kmh 29.89 in1012.2 mb 0.00 in0.0 mm 0.00 in0.0 mm 0.00 in0.0 mm
06:50 AM 38.7°F3.7°C 33.8°F1.0°C 81% 2.4 mph ESE3.9 kmh ESE 3.8 mph6.1 kmh 29.89 in1012.2 mb 0.00 in0.0 mm 0.00 in0.0 mm 0.00 in0.0 mm
06:55 AM 38.7°F3.7°C 33.8°F1.0°C 81% 2.4 mph ESE3.9 kmh ESE 4.3 mph6.9 kmh 29.89 in1012.2 mb 0.00 in0.0 mm 0.00 in0.0 mm 0.00 in0.0 mm
07:00 AM 38.8°F3.8°C 33.8°F1.0°C 81% 2.2 mph E3.5 kmh E 4.3 mph6.9 kmh 29.89 in1012.2 mb 0.00 in0.0 mm 0.00 in0.0 mm 0.00 in0.0 mm
07:05 AM 38.8°F3.8°C 33.8°F1.0°C 81% 1.7 mph ESE2.7 kmh ESE 3.8 mph6.1 kmh 29.89 in1012.2 mb 0.00 in0.0 mm 0.00 in0.0 mm 0.00 in0.0 mm
07:10 AM 38.8°F3.8°C 33.8°F1.0°C 81% 1.5 mph ESE2.4 kmh ESE 3.8 mph6.1 kmh 29.89 in1012.2 mb 0.00 in0.0 mm 0.00 in0.0 mm 0.00 in0.0 mm
07:15 AM 38.8°F3.8°C 33.8°F1.0°C 81% 1.8 mph E2.9 kmh E 3.8 mph6.1 kmh 29.89 in1012.2 mb 0.00 in0.0 mm 0.00 in0.0 mm 0.00 in0.0 mm
07:20 AM 38.8°F3.8°C 33.8°F1.0°C 81% 2.5 mph E4.0 kmh E 6.0 mph9.7 kmh 29.89 in1012.2 mb 0.00 in0.0 mm 0.00 in0.0 mm 0.00 in0.0 mm
07:25 AM 38.8°F3.8°C 33.8°F1.0°C 81% 2.3 mph E3.7 kmh E 6.0 mph9.7 kmh 29.89 in1012.2 mb 0.00 in0.0 mm 0.00 in0.0 mm 0.00 in0.0 mm
07:30 AM 39.0°F3.9°C 33.8°F1.0°C 82% 2.4 mph E3.9 kmh E 5.8 mph9.3 kmh 29.89 in1012.2 mb 0.00 in0.0 mm 0.00 in0.0 mm 0.00 in0.0 mm
07:35 AM 39.0°F3.9°C 33.8°F1.0°C 82% 2.1 mph SSE3.4 kmh SSE 5.8 mph9.3 kmh 29.86 in1011.2 mb 0.00 in0.0 mm 0.00 in0.0 mm 0.00 in0.0 mm
07:40 AM 39.0°F3.9°C 33.8°F1.0°C 82% 2.0 mph SE3.2 kmh SE 5.8 mph9.3 kmh 29.86 in1011.2 mb 0.00 in0.0 mm 0.00 in0.0 mm 0.00 in0.0 mm
07:45 AM 39.0°F3.9°C 33.8°F1.0°C 82% 3.1 mph ESE5.0 kmh ESE 5.8 mph9.3 kmh 29.86 in1011.2 mb 0.00 in0.0 mm 0.00 in0.0 mm 0.00 in0.0 mm
07:50 AM 39.0°F3.9°C 33.8°F1.0°C 82% 3.3 mph SE5.3 kmh SE 5.6 mph9.0 kmh 29.86 in1011.2 mb 0.00 in0.0 mm 0.00 in0.0 mm 0.00 in0.0 mm
07:55 AM 39.0°F3.9°C 33.8°F1.0°C 82% 2.3 mph SE3.7 kmh SE 5.6 mph9.0 kmh 29.86 in1011.2 mb 0.00 in0.0 mm 0.00 in0.0 mm 0.00 in0.0 mm
08:00 AM 39.2°F4.0°C 33.8°F1.0°C 82% 1.5 mph ESE2.4 kmh ESE 5.4 mph8.7 kmh 29.86 in1011.2 mb 0.00 in0.0 mm 0.00 in0.0 mm 0.00 in0.0 mm
08:05 AM 39.2°F4.0°C 33.8°F1.0°C 82% 1.5 mph ESE2.4 kmh ESE 5.4 mph8.7 kmh 29.86 in1011.2 mb 0.00 in0.0 mm 0.00 in0.0 mm 0.00 in0.0 mm
08:10 AM 39.0°F3.9°C 33.8°F1.0°C 82% 2.6 mph ESE4.2 kmh ESE 5.6 mph9.0 kmh 29.86 in1011.2 mb 0.00 in0.0 mm 0.00 in0.0 mm 0.00 in0.0 mm
08:15 AM 39.2°F4.0°C 33.8°F1.0°C 82% 2.4 mph E3.9 kmh E 5.6 mph9.0 kmh 29.86 in1011.2 mb 0.00 in0.0 mm 0.00 in0.0 mm 0.00 in0.0 mm
08:20 AM 39.2°F4.0°C 33.8°F1.0°C 82% 1.5 mph E2.4 kmh E 4.0 mph6.4 kmh 29.86 in1011.2 mb 0.00 in0.0 mm 0.00 in0.0 mm 0.00 in0.0 mm
08:25 AM 39.2°F4.0°C 33.8°F1.0°C 82% 1.2 mph E1.9 kmh E 2.9 mph4.7 kmh 29.86 in1011.2 mb 0.00 in0.0 mm 0.00 in0.0 mm 0.00 in0.0 mm
08:30 AM 39.0°F3.9°C 33.8°F1.0°C 82% 1.0 mph E1.6 kmh E 4.0 mph6.4 kmh 29.86 in1011.2 mb 0.00 in0.0 mm 0.00 in0.0 mm 0.00 in0.0 mm
08:35 AM 39.0°F3.9°C 33.8°F1.0°C 82% 1.4 mph ESE2.3 kmh ESE 4.0 mph6.4 kmh 29.86 in1011.2 mb 0.00 in0.0 mm 0.00 in0.0 mm 0.00 in0.0 mm
08:40 AM 39.2°F4.0°C 33.8°F1.0°C 82% 1.7 mph E2.7 kmh E 2.9 mph4.7 kmh 29.86 in1011.2 mb 0.00 in0.0 mm 0.00 in0.0 mm 0.00 in0.0 mm
08:45 AM 39.2°F4.0°C 33.8°F1.0°C 82% 1.4 mph E2.3 kmh E 2.9 mph4.7 kmh 29.86 in1011.2 mb 0.00 in0.0 mm 0.00 in0.0 mm 0.00 in0.0 mm
08:50 AM 39.2°F4.0°C 33.8°F1.0°C 82% 1.6 mph E2.6 kmh E 6.0 mph9.7 kmh 29.83 in1010.2 mb 0.00 in0.0 mm 0.00 in0.0 mm 0.00 in0.0 mm
08:55 AM 39.2°F4.0°C 33.8°F1.0°C 82% 2.3 mph E3.7 kmh E 6.3 mph10.1 kmh 29.83 in1010.2 mb 0.00 in0.0 mm 0.00 in0.0 mm 0.00 in0.0 mm
09:00 AM 39.2°F4.0°C 33.8°F1.0°C 82% 2.0 mph ESE3.2 kmh ESE 6.3 mph10.1 kmh 29.83 in1010.2 mb 0.00 in0.0 mm 0.00 in0.0 mm 0.00 in0.0 mm
09:05 AM 39.2°F4.0°C 33.8°F1.0°C 82% 1.8 mph SE2.9 kmh SE 3.8 mph6.1 kmh 29.83 in1010.2 mb 0.00 in0.0 mm 0.00 in0.0 mm 0.00 in0.0 mm
09:10 AM 39.4°F4.1°C 33.8°F1.0°C 82% 2.4 mph ESE3.9 kmh ESE 3.8 mph6.1 kmh 29.83 in1010.2 mb 0.00 in0.0 mm 0.00 in0.0 mm 0.00 in0.0 mm
09:15 AM 39.4°F4.1°C 33.8°F1.0°C 82% 2.5 mph E4.0 kmh E 3.8 mph6.1 kmh 29.83 in1010.2 mb 0.00 in0.0 mm 0.00 in0.0 mm 0.00 in0.0 mm
09:20 AM 39.4°F4.1°C 33.8°F1.0°C 82% 2.5 mph E4.0 kmh E 4.9 mph7.9 kmh 29.83 in1010.2 mb 0.00 in0.0 mm 0.00 in0.0 mm 0.00 in0.0 mm
09:25 AM 39.4°F4.1°C 33.8°F1.0°C 82% 2.4 mph E3.9 kmh E 4.9 mph7.9 kmh 29.83 in1010.2 mb 0.00 in0.0 mm 0.00 in0.0 mm 0.00 in0.0 mm
09:30 AM 39.4°F4.1°C 33.8°F1.0°C 82% 2.1 mph E3.4 kmh E 4.7 mph7.6 kmh 29.83 in1010.2 mb 0.00 in0.0 mm 0.00 in0.0 mm 0.00 in0.0 mm
09:35 AM 39.4°F4.1°C 33.8°F1.0°C 82% 2.3 mph E3.7 kmh E 4.0 mph6.4 kmh 29.83 in1010.2 mb 0.00 in0.0 mm 0.00 in0.0 mm 0.00 in0.0 mm
09:40 AM 39.4°F4.1°C 33.8°F1.0°C 82% 2.1 mph ESE3.4 kmh ESE 3.6 mph5.8 kmh 29.83 in1010.2 mb 0.00 in0.0 mm 0.00 in0.0 mm 0.00 in0.0 mm
09:45 AM 39.4°F4.1°C 33.8°F1.0°C 82% 1.8 mph ESE2.9 kmh ESE 3.4 mph5.5 kmh 29.83 in1010.2 mb 0.00 in0.0 mm 0.00 in0.0 mm 0.00 in0.0 mm
09:50 AM 39.4°F4.1°C 33.8°F1.0°C 82% 2.0 mph E3.2 kmh E 4.0 mph6.4 kmh 29.83 in1010.2 mb 0.00 in0.0 mm 0.00 in0.0 mm 0.00 in0.0 mm
09:55 AM 39.4°F4.1°C 33.8°F1.0°C 82% 1.4 mph E2.3 kmh E 4.0 mph6.4 kmh 29.83 in1010.2 mb 0.00 in0.0 mm 0.00 in0.0 mm 0.00 in0.0 mm
10:00 AM 39.4°F4.1°C 33.8°F1.0°C 82% 0.4 mph SE0.6 kmh SE 1.6 mph2.6 kmh 29.83 in1010.2 mb 0.00 in0.0 mm 0.00 in0.0 mm 0.00 in0.0 mm
10:05 AM 39.4°F4.1°C 33.8°F1.0°C 82% 0.6 mph E1.0 kmh E 2.9 mph4.7 kmh 29.83 in1010.2 mb 0.00 in0.0 mm 0.00 in0.0 mm 0.00 in0.0 mm
10:10 AM 39.4°F4.1°C 33.8°F1.0°C 83% 1.5 mph ESE2.4 kmh ESE 3.4 mph5.5 kmh 29.83 in1010.2 mb 0.00 in0.0 mm 0.00 in0.0 mm 0.00 in0.0 mm
10:15 AM 39.4°F4.1°C 33.8°F1.0°C 83% 2.1 mph ESE3.4 kmh ESE 4.3 mph6.9 kmh 29.83 in1010.2 mb 0.00 in0.0 mm 0.00 in0.0 mm 0.00 in0.0 mm
10:20 AM 39.6°F4.2°C 33.8°F1.0°C 83% 1.9 mph E3.1 kmh E 4.3 mph6.9 kmh 29.80 in1009.1 mb 0.00 in0.0 mm 0.00 in0.0 mm 0.00 in0.0 mm
10:25 AM 39.4°F4.1°C 33.8°F1.0°C 83% 1.1 mph ESE1.8 kmh ESE 2.2 mph3.5 kmh 29.80 in1009.1 mb 0.00 in0.0 mm 0.00 in0.0 mm 0.00 in0.0 mm
10:30 AM 39.4°F4.1°C 33.8°F1.0°C 83% 0.6 mph SE1.0 kmh SE 2.2 mph3.5 kmh 29.80 in1009.1 mb 0.00 in0.0 mm 0.00 in0.0 mm 0.00 in0.0 mm
10:35 AM 39.4°F4.1°C 33.8°F1.0°C 83% 0.7 mph ESE1.1 kmh ESE 2.5 mph4.0 kmh 29.80 in1009.1 mb 0.00 in0.0 mm 0.00 in0.0 mm 0.00 in0.0 mm
10:40 AM 39.6°F4.2°C 33.8°F1.0°C 83% 1.3 mph ESE2.1 kmh ESE 2.5 mph4.0 kmh 29.80 in1009.1 mb 0.00 in0.0 mm 0.00 in0.0 mm 0.00 in0.0 mm
10:45 AM 39.6°F4.2°C 33.8°F1.0°C 83% 1.0 mph SE1.6 kmh SE 2.5 mph4.0 kmh 29.80 in1009.1 mb 0.00 in0.0 mm 0.00 in0.0 mm 0.00 in0.0 mm
10:50 AM 39.6°F4.2°C 33.8°F1.0°C 83% 0.6 mph SE1.0 kmh SE 2.5 mph4.0 kmh 29.80 in1009.1 mb 0.00 in0.0 mm 0.00 in0.0 mm 0.00 in0.0 mm
10:55 AM 39.6°F4.2°C 33.8°F1.0°C 83% 0.4 mph ESE0.6 kmh ESE 2.0 mph3.2 kmh 29.80 in1009.1 mb 0.00 in0.0 mm 0.00 in0.0 mm 0.00 in0.0 mm
11:00 AM 39.6°F4.2°C 33.8°F1.0°C 83% 0.8 mph ESE1.3 kmh ESE 2.5 mph4.0 kmh 29.80 in1009.1 mb 0.00 in0.0 mm 0.00 in0.0 mm 0.00 in0.0 mm
11:05 AM 39.6°F4.2°C 33.8°F1.0°C 83% 1.2 mph E1.9 kmh E 2.5 mph4.0 kmh 29.77 in1008.1 mb 0.00 in0.0 mm 0.00 in0.0 mm 0.00 in0.0 mm
11:10 AM 39.6°F4.2°C 33.8°F1.0°C 83% 1.0 mph SE1.6 kmh SE 2.7 mph4.3 kmh 29.77 in1008.1 mb 0.00 in0.0 mm 0.00 in0.0 mm 0.00 in0.0 mm
11:15 AM 39.6°F4.2°C 33.8°F1.0°C 83% 1.1 mph SE1.8 kmh SE 2.9 mph4.7 kmh 29.77 in1008.1 mb 0.00 in0.0 mm 0.00 in0.0 mm 0.00 in0.0 mm
11:20 AM 39.6°F4.2°C 33.8°F1.0°C 83% 0.9 mph ESE1.4 kmh ESE 2.9 mph4.7 kmh 29.77 in1008.1 mb 0.00 in0.0 mm 0.00 in0.0 mm 0.00 in0.0 mm
11:25 AM 39.6°F4.2°C 33.8°F1.0°C 83% 0.7 mph ESE1.1 kmh ESE 2.2 mph3.5 kmh 29.77 in1008.1 mb 0.00 in0.0 mm 0.00 in0.0 mm 0.00 in0.0 mm
11:30 AM 39.6°F4.2°C 33.8°F1.0°C 83% 0.6 mph E1.0 kmh E 2.2 mph3.5 kmh 29.77 in1008.1 mb 0.00 in0.0 mm 0.00 in0.0 mm 0.00 in0.0 mm
11:35 AM 39.7°F4.3°C 33.8°F1.0°C 83% 0.6 mph SSE1.0 kmh SSE 3.8 mph6.1 kmh 29.77 in1008.1 mb 0.00 in0.0 mm 0.00 in0.0 mm 0.00 in0.0 mm
11:40 AM 39.7°F4.3°C 33.8°F1.0°C 83% 0.5 mph S0.8 kmh S 3.8 mph6.1 kmh 29.77 in1008.1 mb 0.00 in0.0 mm 0.00 in0.0 mm 0.00 in0.0 mm
11:45 AM 39.7°F4.3°C 33.8°F1.0°C 83% 0.3 mph SSE0.5 kmh SSE 1.1 mph1.8 kmh 29.77 in1008.1 mb 0.00 in0.0 mm 0.00 in0.0 mm 0.00 in0.0 mm
11:50 AM 39.7°F4.3°C 33.8°F1.0°C 83% 0.7 mph SE1.1 kmh SE 2.2 mph3.5 kmh 29.77 in1008.1 mb 0.00 in0.0 mm 0.00 in0.0 mm 0.00 in0.0 mm
11:55 AM 39.7°F4.3°C 33.8°F1.0°C 83% 1.4 mph SSE2.3 kmh SSE 4.3 mph6.9 kmh 29.77 in1008.1 mb 0.00 in0.0 mm 0.00 in0.0 mm 0.00 in0.0 mm
12:00 PM 39.7°F4.3°C 33.8°F1.0°C 83% 2.1 mph SE3.4 kmh SE 4.3 mph6.9 kmh 29.77 in1008.1 mb 0.00 in0.0 mm 0.00 in0.0 mm 0.00 in0.0 mm
12:05 PM 39.7°F4.3°C 33.8°F1.0°C 83% 1.7 mph SE2.7 kmh SE 4.0 mph6.4 kmh 29.77 in1008.1 mb 0.00 in0.0 mm 0.00 in0.0 mm 0.00 in0.0 mm
12:10 PM 39.7°F4.3°C 33.8°F1.0°C 83% 1.4 mph E2.3 kmh E 2.5 mph4.0 kmh 29.77 in1008.1 mb 0.00 in0.0 mm 0.00 in0.0 mm 0.00 in0.0 mm
12:15 PM 39.7°F4.3°C 33.8°F1.0°C 82% 1.2 mph E1.9 kmh E 4.3 mph6.9 kmh 29.77 in1008.1 mb 0.00 in0.0 mm 0.00 in0.0 mm 0.00 in0.0 mm
12:20 PM 39.7°F4.3°C 33.8°F1.0°C 82% 1.1 mph SE1.8 kmh SE 4.3 mph6.9 kmh 29.74 in1007.1 mb 0.00 in0.0 mm 0.00 in0.0 mm 0.00 in0.0 mm
12:25 PM 39.9°F4.4°C 35.6°F2.0°C 82% 1.2 mph SE1.9 kmh SE 3.1 mph5.0 kmh 29.74 in1007.1 mb 0.00 in0.0 mm 0.00 in0.0 mm 0.00 in0.0 mm
12:30 PM 39.9°F4.4°C 35.6°F2.0°C 82% 1.4 mph E2.3 kmh E 2.9 mph4.7 kmh 29.74 in1007.1 mb 0.00 in0.0 mm 0.00 in0.0 mm 0.00 in0.0 mm
12:35 PM 39.9°F4.4°C 35.6°F2.0°C 82% 1.6 mph E2.6 kmh E 2.9 mph4.7 kmh 29.74 in1007.1 mb 0.00 in0.0 mm 0.00 in0.0 mm 0.00 in0.0 mm
12:40 PM 39.9°F4.4°C 35.6°F2.0°C 82% 1.2 mph ESE1.9 kmh ESE 2.9 mph4.7 kmh 29.74 in1007.1 mb 0.00 in0.0 mm 0.00 in0.0 mm 0.00 in0.0 mm
12:45 PM 39.9°F4.4°C 35.6°F2.0°C 82% 1.5 mph E2.4 kmh E 2.9 mph4.7 kmh 29.74 in1007.1 mb 0.00 in0.0 mm 0.00 in0.0 mm 0.00 in0.0 mm
12:50 PM 39.9°F4.4°C 35.6°F2.0°C 82% 1.8 mph ESE2.9 kmh ESE 2.9 mph4.7 kmh 29.74 in1007.1 mb 0.00 in0.0 mm 0.00 in0.0 mm 0.00 in0.0 mm
12:55 PM 39.9°F4.4°C 35.6°F2.0°C 82% 1.0 mph SE1.6 kmh SE 2.5 mph4.0 kmh 29.74 in1007.1 mb 0.00 in0.0 mm 0.00 in0.0 mm 0.00 in0.0 mm
01:00 PM 39.9°F4.4°C 35.6°F2.0°C 82% 1.8 mph ESE2.9 kmh ESE 5.4 mph8.7 kmh 29.74 in1007.1 mb 0.00 in0.0 mm 0.00 in0.0 mm 0.00 in0.0 mm
01:05 PM 39.7°F4.3°C 33.8°F1.0°C 83% 2.0 mph ESE3.2 kmh ESE 5.4 mph8.7 kmh 29.74 in1007.1 mb 0.00 in0.0 mm 0.00 in0.0 mm 0.00 in0.0 mm
01:10 PM 39.7°F4.3°C 33.8°F1.0°C 83% 1.4 mph ESE2.3 kmh ESE 4.0 mph6.4 kmh 29.74 in1007.1 mb 0.00 in0.0 mm 0.00 in0.0 mm 0.00 in0.0 mm
01:15 PM 39.7°F4.3°C 33.8°F1.0°C 83% 1.4 mph E2.3 kmh E 4.0 mph6.4 kmh 29.74 in1007.1 mb 0.00 in0.0 mm 0.00 in0.0 mm 0.00 in0.0 mm
01:20 PM 39.7°F4.3°C 33.8°F1.0°C 83% 1.4 mph E2.3 kmh E 6.9 mph11.1 kmh 29.71 in1006.1 mb 0.00 in0.0 mm 0.00 in0.0 mm 0.00 in0.0 mm
01:25 PM 39.7°F4.3°C 33.8°F1.0°C 83% 1.9 mph SSE3.1 kmh SSE 6.9 mph11.1 kmh 29.71 in1006.1 mb 0.00 in0.0 mm 0.00 in0.0 mm 0.00 in0.0 mm
01:30 PM 39.7°F4.3°C 33.8°F1.0°C 83% 1.5 mph SSE2.4 kmh SSE 4.9 mph7.9 kmh 29.71 in1006.1 mb 0.00 in0.0 mm 0.00 in0.0 mm 0.00 in0.0 mm
01:35 PM 39.7°F4.3°C 33.8°F1.0°C 83% 0.6 mph SE1.0 kmh SE 1.6 mph2.6 kmh 29.71 in1006.1 mb 0.00 in0.0 mm 0.00 in0.0 mm 0.00 in0.0 mm
01:40 PM 39.7°F4.3°C 33.8°F1.0°C 83% 0.7 mph E1.1 kmh E 2.5 mph4.0 kmh 29.71 in1006.1 mb 0.00 in0.0 mm 0.00 in0.0 mm 0.00 in0.0 mm
01:45 PM 39.7°F4.3°C 33.8°F1.0°C 83% 1.0 mph E1.6 kmh E 2.5 mph4.0 kmh 29.71 in1006.1 mb 0.00 in0.0 mm 0.00 in0.0 mm 0.00 in0.0 mm
01:50 PM 39.7°F4.3°C 33.8°F1.0°C 83% 0.8 mph E1.3 kmh E 2.5 mph4.0 kmh 29.71 in1006.1 mb 0.00 in0.0 mm 0.00 in0.0 mm 0.00 in0.0 mm
01:55 PM 39.7°F4.3°C 33.8°F1.0°C 83% 0.7 mph E1.1 kmh E 2.0 mph3.2 kmh 29.71 in1006.1 mb 0.00 in0.0 mm 0.00 in0.0 mm 0.00 in0.0 mm
02:00 PM 39.7°F4.3°C 33.8°F1.0°C 83% 0.8 mph SE1.3 kmh SE 2.0 mph3.2 kmh 29.71 in1006.1 mb 0.00 in0.0 mm 0.00 in0.0 mm 0.00 in0.0 mm
02:05 PM 39.7°F4.3°C 33.8°F1.0°C 83% 1.1 mph ESE1.8 kmh ESE 3.4 mph5.5 kmh 29.71 in1006.1 mb 0.00 in0.0 mm 0.00 in0.0 mm 0.00 in0.0 mm
02:10 PM 39.7°F4.3°C 33.8°F1.0°C 83% 1.1 mph E1.8 kmh E 3.4 mph5.5 kmh 29.71 in1006.1 mb 0.00 in0.0 mm 0.00 in0.0 mm 0.00 in0.0 mm
02:15 PM 39.7°F4.3°C 33.8°F1.0°C 83% 1.2 mph SE1.9 kmh SE 5.8 mph9.3 kmh 29.71 in1006.1 mb 0.00 in0.0 mm 0.00 in0.0 mm 0.00 in0.0 mm
02:20 PM 39.6°F4.2°C 33.8°F1.0°C 83% 1.1 mph SSE1.8 kmh SSE 5.8 mph9.3 kmh 29.71 in1006.1 mb 0.00 in0.0 mm 0.00 in0.0 mm 0.00 in0.0 mm
02:25 PM 39.6°F4.2°C 33.8°F1.0°C 83% 1.8 mph SSW2.9 kmh SSW 4.5 mph7.2 kmh 29.71 in1006.1 mb 0.00 in0.0 mm 0.00 in0.0 mm 0.00 in0.0 mm
02:30 PM 39.6°F4.2°C 33.8°F1.0°C 83% 2.0 mph SSW3.2 kmh SSW 4.5 mph7.2 kmh 29.71 in1006.1 mb 0.00 in0.0 mm 0.00 in0.0 mm 0.00 in0.0 mm
02:35 PM 39.6°F4.2°C 33.8°F1.0°C 83% 2.0 mph SE3.2 kmh SE 6.0 mph9.7 kmh 29.71 in1006.1 mb 0.00 in0.0 mm 0.00 in0.0 mm 0.00 in0.0 mm
02:40 PM 39.6°F4.2°C 33.8°F1.0°C 83% 2.1 mph SE3.4 kmh SE 6.0 mph9.7 kmh 29.71 in1006.1 mb 0.00 in0.0 mm 0.00 in0.0 mm 0.00 in0.0 mm
02:45 PM 39.4°F4.1°C 33.8°F1.0°C 83% 1.5 mph SSE2.4 kmh SSE 6.0 mph9.7 kmh 29.71 in1006.1 mb 0.00 in0.0 mm 0.00 in0.0 mm 0.00 in0.0 mm
02:50 PM 39.4°F4.1°C 33.8°F1.0°C 83% 1.1 mph SSE1.8 kmh SSE 2.9 mph4.7 kmh 29.71 in1006.1 mb 0.00 in0.0 mm 0.00 in0.0 mm 0.00 in0.0 mm
02:55 PM 39.2°F4.0°C 33.8°F1.0°C 83% 1.4 mph SSE2.3 kmh SSE 3.4 mph5.5 kmh 29.71 in1006.1 mb 0.00 in0.0 mm 0.00 in0.0 mm 0.00 in0.0 mm
03:00 PM 39.2°F4.0°C 33.8°F1.0°C 84% 1.8 mph SSE2.9 kmh SSE 4.0 mph6.4 kmh 29.71 in1006.1 mb 0.00 in0.0 mm 0.00 in0.0 mm 0.00 in0.0 mm
03:05 PM 39.0°F3.9°C 33.8°F1.0°C 84% 2.2 mph SE3.5 kmh SE 4.7 mph7.6 kmh 29.71 in1006.1 mb 0.00 in0.0 mm 0.00 in0.0 mm 0.00 in0.0 mm
03:10 PM 39.0°F3.9°C 33.8°F1.0°C 84% 2.1 mph SE3.4 kmh SE 5.8 mph9.3 kmh 29.71 in1006.1 mb 0.00 in0.0 mm 0.00 in0.0 mm 0.00 in0.0 mm
03:15 PM 39.0°F3.9°C 33.8°F1.0°C 84% 1.9 mph SE3.1 kmh SE 5.8 mph9.3 kmh 29.71 in1006.1 mb 0.00 in0.0 mm 0.00 in0.0 mm 0.00 in0.0 mm
03:20 PM 38.8°F3.8°C 33.8°F1.0°C 84% 2.1 mph SSE3.4 kmh SSE 3.8 mph6.1 kmh 29.71 in1006.1 mb 0.00 in0.0 mm 0.00 in0.0 mm 0.00 in0.0 mm
03:25 PM 38.8°F3.8°C 33.8°F1.0°C 84% 2.0 mph SSE3.2 kmh SSE 4.0 mph6.4 kmh 29.71 in1006.1 mb 0.00 in0.0 mm 0.00 in0.0 mm 0.00 in0.0 mm
03:30 PM 38.8°F3.8°C 33.8°F1.0°C 84% 3.2 mph SE5.1 kmh SE 9.8 mph15.8 kmh 29.71 in1006.1 mb 0.00 in0.0 mm 0.00 in0.0 mm 0.00 in0.0 mm
03:35 PM 38.7°F3.7°C 33.8°F1.0°C 84% 3.8 mph SSE6.1 kmh SSE 9.8 mph15.8 kmh 29.71 in1006.1 mb 0.00 in0.0 mm 0.00 in0.0 mm 0.00 in0.0 mm
03:40 PM 38.7°F3.7°C 33.8°F1.0°C 84% 3.4 mph SSE5.5 kmh SSE 6.0 mph9.7 kmh 29.71 in1006.1 mb 0.00 in0.0 mm 0.00 in0.0 mm 0.00 in0.0 mm
03:45 PM 38.5°F3.6°C 33.8°F1.0°C 84% 3.3 mph S5.3 kmh S 4.9 mph7.9 kmh 29.71 in1006.1 mb 0.00 in0.0 mm 0.00 in0.0 mm 0.00 in0.0 mm
03:50 PM 38.5°F3.6°C 33.8°F1.0°C 84% 3.1 mph S5.0 kmh S 5.4 mph8.7 kmh 29.71 in1006.1 mb 0.00 in0.0 mm 0.00 in0.0 mm 0.00 in0.0 mm
03:55 PM 38.3°F3.5°C 33.8°F1.0°C 84% 3.7 mph S6.0 kmh S 6.5 mph10.5 kmh 29.71 in1006.1 mb 0.00 in0.0 mm 0.00 in0.0 mm 0.00 in0.0 mm
04:00 PM 38.3°F3.5°C 33.8°F1.0°C 84% 4.1 mph S6.6 kmh S 6.5 mph10.5 kmh 29.71 in1006.1 mb 0.00 in0.0 mm 0.00 in0.0 mm 0.00 in0.0 mm
04:05 PM 38.1°F3.4°C 33.8°F1.0°C 84% 4.2 mph SSW6.8 kmh SSW 6.5 mph10.5 kmh 29.71 in1006.1 mb 0.00 in0.0 mm 0.00 in0.0 mm 0.00 in0.0 mm
04:10 PM 38.1°F3.4°C 33.8°F1.0°C 84% 2.9 mph S4.7 kmh S 6.5 mph10.5 kmh 29.71 in1006.1 mb 0.00 in0.0 mm 0.00 in0.0 mm 0.00 in0.0 mm
04:15 PM 38.1°F3.4°C 33.8°F1.0°C 84% 1.3 mph S2.1 kmh S 5.8 mph9.3 kmh 29.71 in1006.1 mb 0.00 in0.0 mm 0.00 in0.0 mm 0.00 in0.0 mm
04:20 PM 37.9°F3.3°C 33.8°F1.0°C 84% 1.2 mph S1.9 kmh S 3.8 mph6.1 kmh 29.68 in1005.1 mb 0.00 in0.0 mm 0.00 in0.0 mm 0.00 in0.0 mm
04:25 PM 37.9°F3.3°C 33.8°F1.0°C 84% 2.4 mph S3.9 kmh S 5.4 mph8.7 kmh 29.68 in1005.1 mb 0.00 in0.0 mm 0.00 in0.0 mm 0.00 in0.0 mm
04:30 PM 37.8°F3.2°C 33.8°F1.0°C 84% 2.6 mph S4.2 kmh S 5.4 mph8.7 kmh 29.68 in1005.1 mb 0.00 in0.0 mm 0.00 in0.0 mm 0.00 in0.0 mm
04:35 PM 37.8°F3.2°C 33.8°F1.0°C 84% 2.4 mph S3.9 kmh S 5.6 mph9.0 kmh 29.68 in1005.1 mb 0.00 in0.0 mm 0.00 in0.0 mm 0.00 in0.0 mm
04:40 PM 37.8°F3.2°C 33.8°F1.0°C 84% 1.7 mph S2.7 kmh S 5.6 mph9.0 kmh 29.68 in1005.1 mb 0.00 in0.0 mm 0.00 in0.0 mm 0.00 in0.0 mm
04:45 PM 37.8°F3.2°C 33.8°F1.0°C 84% 0.9 mph S1.4 kmh S 3.8 mph6.1 kmh 29.68 in1005.1 mb 0.00 in0.0 mm 0.00 in0.0 mm 0.00 in0.0 mm
04:50 PM 37.8°F3.2°C 33.8°F1.0°C 84% 0.6 mph S1.0 kmh S 2.5 mph4.0 kmh 29.68 in1005.1 mb 0.00 in0.0 mm 0.00 in0.0 mm 0.00 in0.0 mm
04:55 PM 37.6°F3.1°C 33.8°F1.0°C 84% 0.7 mph SSE1.1 kmh SSE 2.7 mph4.3 kmh 29.68 in1005.1 mb 0.00 in0.0 mm 0.00 in0.0 mm 0.00 in0.0 mm
05:00 PM 37.6°F3.1°C 33.8°F1.0°C 84% 0.7 mph SSE1.1 kmh SSE 2.7 mph4.3 kmh 29.68 in1005.1 mb 0.00 in0.0 mm 0.00 in0.0 mm 0.00 in0.0 mm
05:05 PM 37.6°F3.1°C 33.8°F1.0°C 84% 0.2 mph SSE0.3 kmh SSE 1.3 mph2.1 kmh 29.68 in1005.1 mb 0.00 in0.0 mm 0.00 in0.0 mm 0.00 in0.0 mm
05:10 PM 37.6°F3.1°C 33.8°F1.0°C 84% 0.1 mph SSE0.2 kmh SSE 1.3 mph2.1 kmh 29.68 in1005.1 mb 0.00 in0.0 mm 0.00 in0.0 mm 0.00 in0.0 mm
05:15 PM 37.6°F3.1°C 33.8°F1.0°C 84% 0.2 mph ESE0.3 kmh ESE 0.9 mph1.4 kmh 29.68 in1005.1 mb 0.00 in0.0 mm 0.00 in0.0 mm 0.00 in0.0 mm
05:20 PM 37.4°F3.0°C 33.8°F1.0°C 84% 0.4 mph ESE0.6 kmh ESE 0.9 mph1.4 kmh 29.68 in1005.1 mb 0.00 in0.0 mm 0.00 in0.0 mm 0.00 in0.0 mm
05:25 PM 37.4°F3.0°C 33.8°F1.0°C 84% 0.9 mph ESE1.4 kmh ESE 2.0 mph3.2 kmh 29.68 in1005.1 mb 0.00 in0.0 mm 0.00 in0.0 mm 0.00 in0.0 mm
05:30 PM 37.4°F3.0°C 33.8°F1.0°C 84% 0.8 mph ESE1.3 kmh ESE 2.0 mph3.2 kmh 29.68 in1005.1 mb 0.00 in0.0 mm 0.00 in0.0 mm 0.00 in0.0 mm
05:35 PM 37.4°F3.0°C 33.8°F1.0°C 84% 0.6 mph E1.0 kmh E 1.6 mph2.6 kmh 29.68 in1005.1 mb 0.00 in0.0 mm 0.00 in0.0 mm 0.00 in0.0 mm
05:40 PM 37.4°F3.0°C 33.8°F1.0°C 84% 0.6 mph ESE1.0 kmh ESE 1.6 mph2.6 kmh 29.68 in1005.1 mb 0.00 in0.0 mm 0.00 in0.0 mm 0.00 in0.0 mm
05:45 PM 37.4°F3.0°C 33.8°F1.0°C 84% 0.3 mph E0.5 kmh E 1.1 mph1.8 kmh 29.68 in1005.1 mb 0.00 in0.0 mm 0.00 in0.0 mm 0.00 in0.0 mm
05:50 PM 37.4°F3.0°C 33.8°F1.0°C 84% 0.3 mph ESE0.5 kmh ESE 2.0 mph3.2 kmh 29.65 in1004.1 mb 0.00 in0.0 mm 0.00 in0.0 mm 0.00 in0.0 mm
05:55 PM 37.4°F3.0°C 33.8°F1.0°C 84% 0.1 mph SE0.2 kmh SE 2.0 mph3.2 kmh 29.65 in1004.1 mb 0.00 in0.0 mm 0.00 in0.0 mm 0.00 in0.0 mm
06:00 PM 37.4°F3.0°C 33.8°F1.0°C 84% 0.4 mph SE0.6 kmh SE 2.0 mph3.2 kmh 29.65 in1004.1 mb 0.00 in0.0 mm 0.00 in0.0 mm 0.00 in0.0 mm
06:05 PM 37.4°F3.0°C 33.8°F1.0°C 84% 0.4 mph SE0.6 kmh SE 2.0 mph3.2 kmh 29.65 in1004.1 mb 0.00 in0.0 mm 0.00 in0.0 mm 0.00 in0.0 mm
06:10 PM 37.4°F3.0°C 33.8°F1.0°C 84% 0.3 mph S0.5 kmh S 1.3 mph2.1 kmh 29.65 in1004.1 mb 0.00 in0.0 mm 0.00 in0.0 mm 0.00 in0.0 mm
06:15 PM 37.6°F3.1°C 33.8°F1.0°C 84% 0.8 mph SE1.3 kmh SE 2.7 mph4.3 kmh 29.65 in1004.1 mb 0.00 in0.0 mm 0.00 in0.0 mm 0.00 in0.0 mm
06:20 PM 37.6°F3.1°C 33.8°F1.0°C 84% 0.8 mph E1.3 kmh E 2.7 mph4.3 kmh 29.68 in1005.1 mb 0.00 in0.0 mm 0.00 in0.0 mm 0.00 in0.0 mm
06:25 PM 37.6°F3.1°C 33.8°F1.0°C 84% 0.5 mph ENE0.8 kmh ENE 2.7 mph4.3 kmh 29.68 in1005.1 mb 0.00 in0.0 mm 0.00 in0.0 mm 0.00 in0.0 mm
06:30 PM 37.6°F3.1°C 33.8°F1.0°C 84% 0.3 mph SE0.5 kmh SE 1.3 mph2.1 kmh 29.68 in1005.1 mb 0.00 in0.0 mm 0.00 in0.0 mm 0.00 in0.0 mm
06:35 PM 37.6°F3.1°C 33.8°F1.0°C 84% 0.3 mph ESE0.5 kmh ESE 1.3 mph2.1 kmh 29.65 in1004.1 mb 0.00 in0.0 mm 0.00 in0.0 mm 0.00 in0.0 mm
06:40 PM 37.6°F3.1°C 33.8°F1.0°C 84% 0.2 mph E0.3 kmh E 1.1 mph1.8 kmh 29.65 in1004.1 mb 0.00 in0.0 mm 0.00 in0.0 mm 0.00 in0.0 mm
06:45 PM 37.6°F3.1°C 33.8°F1.0°C 84% 0.6 mph SSE1.0 kmh SSE 2.7 mph4.3 kmh 29.65 in1004.1 mb 0.00 in0.0 mm 0.00 in0.0 mm 0.00 in0.0 mm
06:50 PM 37.6°F3.1°C 33.8°F1.0°C 84% 0.7 mph SE1.1 kmh SE 2.7 mph4.3 kmh 29.65 in1004.1 mb 0.00 in0.0 mm 0.00 in0.0 mm 0.00 in0.0 mm
06:55 PM 37.8°F3.2°C 33.8°F1.0°C 84% 0.9 mph SSE1.4 kmh SSE 3.6 mph5.8 kmh 29.65 in1004.1 mb 0.00 in0.0 mm 0.00 in0.0 mm 0.00 in0.0 mm
07:00 PM 37.8°F3.2°C 33.8°F1.0°C 84% 1.4 mph SSE2.3 kmh SSE 3.6 mph5.8 kmh 29.65 in1004.1 mb 0.00 in0.0 mm 0.00 in0.0 mm 0.00 in0.0 mm
07:05 PM 37.8°F3.2°C 33.8°F1.0°C 84% 1.0 mph SSE1.6 kmh SSE 3.6 mph5.8 kmh 29.65 in1004.1 mb 0.00 in0.0 mm 0.00 in0.0 mm 0.00 in0.0 mm
07:10 PM 37.8°F3.2°C 33.8°F1.0°C 84% 0.2 mph SSE0.3 kmh SSE 2.5 mph4.0 kmh 29.65 in1004.1 mb 0.00 in0.0 mm 0.00 in0.0 mm 0.00 in0.0 mm
07:15 PM 37.8°F3.2°C 33.8°F1.0°C 84% 1.0 mph SSE1.6 kmh SSE 2.5 mph4.0 kmh 29.65 in1004.1 mb 0.00 in0.0 mm 0.00 in0.0 mm 0.00 in0.0 mm
07:20 PM 37.8°F3.2°C 33.8°F1.0°C 84% 1.1 mph SSE1.8 kmh SSE 2.5 mph4.0 kmh 29.65 in1004.1 mb 0.00 in0.0 mm 0.00 in0.0 mm 0.00 in0.0 mm
07:25 PM 37.8°F3.2°C 33.8°F1.0°C 84% 0.5 mph SSE0.8 kmh SSE 2.9 mph4.7 kmh 29.65 in1004.1 mb 0.00 in0.0 mm 0.00 in0.0 mm 0.00 in0.0 mm
07:30 PM 37.8°F3.2°C 33.8°F1.0°C 84% 0.9 mph SSE1.4 kmh SSE 3.1 mph5.0 kmh 29.65 in1004.1 mb 0.00 in0.0 mm 0.00 in0.0 mm 0.00 in0.0 mm
07:35 PM 37.8°F3.2°C 33.8°F1.0°C 84% 0.6 mph SSE1.0 kmh SSE 3.1 mph5.0 kmh 29.65 in1004.1 mb 0.00 in0.0 mm 0.00 in0.0 mm 0.00 in0.0 mm
07:40 PM 37.8°F3.2°C 33.8°F1.0°C 84% 0.8 mph S1.3 kmh S 2.7 mph4.3 kmh 29.65 in1004.1 mb 0.00 in0.0 mm 0.00 in0.0 mm 0.00 in0.0 mm
07:45 PM 37.9°F3.3°C 33.8°F1.0°C 84% 1.6 mph S2.6 kmh S 3.4 mph5.5 kmh 29.65 in1004.1 mb 0.00 in0.0 mm 0.00 in0.0 mm 0.00 in0.0 mm
07:50 PM 37.9°F3.3°C 33.8°F1.0°C 84% 2.9 mph S4.7 kmh S 5.6 mph9.0 kmh 29.65 in1004.1 mb 0.00 in0.0 mm 0.00 in0.0 mm 0.00 in0.0 mm
07:55 PM 37.9°F3.3°C 33.8°F1.0°C 84% 3.3 mph SSW5.3 kmh SSW 5.6 mph9.0 kmh 29.65 in1004.1 mb 0.00 in0.0 mm 0.00 in0.0 mm 0.00 in0.0 mm
08:00 PM 37.9°F3.3°C 33.8°F1.0°C 84% 2.2 mph S3.5 kmh S 4.3 mph6.9 kmh 29.65 in1004.1 mb 0.00 in0.0 mm 0.00 in0.0 mm 0.00 in0.0 mm
08:05 PM 37.9°F3.3°C 33.8°F1.0°C 84% 0.9 mph SSE1.4 kmh SSE 4.3 mph6.9 kmh 29.65 in1004.1 mb 0.00 in0.0 mm 0.00 in0.0 mm 0.00 in0.0 mm
08:10 PM 37.9°F3.3°C 33.8°F1.0°C 84% 0.1 mph SE0.2 kmh SE 0.9 mph1.4 kmh 29.65 in1004.1 mb 0.00 in0.0 mm 0.00 in0.0 mm 0.00 in0.0 mm
08:15 PM 37.9°F3.3°C 33.8°F1.0°C 84% 0.3 mph SE0.5 kmh SE 2.5 mph4.0 kmh 29.65 in1004.1 mb 0.00 in0.0 mm 0.00 in0.0 mm 0.00 in0.0 mm
08:20 PM 37.9°F3.3°C 33.8°F1.0°C 84% 0.3 mph SE0.5 kmh SE 2.5 mph4.0 kmh 29.65 in1004.1 mb 0.00 in0.0 mm 0.00 in0.0 mm 0.00 in0.0 mm
08:25 PM 37.8°F3.2°C 33.8°F1.0°C 84% 0.4 mph E0.6 kmh E 1.3 mph2.1 kmh 29.65 in1004.1 mb 0.00 in0.0 mm 0.00 in0.0 mm 0.00 in0.0 mm
08:30 PM 37.8°F3.2°C 33.8°F1.0°C 84% 1.1 mph E1.8 kmh E 2.7 mph4.3 kmh 29.65 in1004.1 mb 0.00 in0.0 mm 0.00 in0.0 mm 0.00 in0.0 mm
08:35 PM 37.8°F3.2°C 33.8°F1.0°C 84% 1.0 mph E1.6 kmh E 2.7 mph4.3 kmh 29.65 in1004.1 mb 0.00 in0.0 mm 0.00 in0.0 mm 0.00 in0.0 mm
08:40 PM 37.8°F3.2°C 33.8°F1.0°C 84% 0.6 mph E1.0 kmh E 2.7 mph4.3 kmh 29.65 in1004.1 mb 0.00 in0.0 mm 0.00 in0.0 mm 0.00 in0.0 mm
08:45 PM 37.9°F3.3°C 33.8°F1.0°C 84% 0.8 mph E1.3 kmh E 2.0 mph3.2 kmh 29.65 in1004.1 mb 0.00 in0.0 mm 0.00 in0.0 mm 0.00 in0.0 mm
08:50 PM 37.9°F3.3°C 33.8°F1.0°C 84% 1.4 mph SSE2.3 kmh SSE 3.6 mph5.8 kmh 29.65 in1004.1 mb 0.00 in0.0 mm 0.00 in0.0 mm 0.00 in0.0 mm
08:55 PM 37.9°F3.3°C 33.8°F1.0°C 84% 1.6 mph SSE2.6 kmh SSE 4.5 mph7.2 kmh 29.65 in1004.1 mb 0.00 in0.0 mm 0.00 in0.0 mm 0.00 in0.0 mm
09:00 PM 37.9°F3.3°C 33.8°F1.0°C 84% 1.8 mph SE2.9 kmh SE 4.5 mph7.2 kmh 29.65 in1004.1 mb 0.00 in0.0 mm 0.00 in0.0 mm 0.00 in0.0 mm
09:05 PM 37.9°F3.3°C 33.8°F1.0°C 84% 1.3 mph ESE2.1 kmh ESE 3.4 mph5.5 kmh 29.62 in1003.0 mb 0.00 in0.0 mm 0.00 in0.0 mm 0.00 in0.0 mm
09:10 PM 37.9°F3.3°C 33.8°F1.0°C 84% 0.9 mph ESE1.4 kmh ESE 3.4 mph5.5 kmh 29.62 in1003.0 mb 0.00 in0.0 mm 0.00 in0.0 mm 0.00 in0.0 mm
09:15 PM 37.9°F3.3°C 33.8°F1.0°C 84% 0.8 mph E1.3 kmh E 3.1 mph5.0 kmh 29.62 in1003.0 mb 0.00 in0.0 mm 0.00 in0.0 mm 0.00 in0.0 mm
09:20 PM 37.9°F3.3°C 33.8°F1.0°C 84% 0.8 mph E1.3 kmh E 3.1 mph5.0 kmh 29.62 in1003.0 mb 0.00 in0.0 mm 0.00 in0.0 mm 0.00 in0.0 mm
09:25 PM 37.9°F3.3°C 33.8°F1.0°C 84% 0.8 mph E1.3 kmh E 3.4 mph5.5 kmh 29.62 in1003.0 mb 0.00 in0.0 mm 0.00 in0.0 mm 0.00 in0.0 mm
09:30 PM 37.9°F3.3°C 33.8°F1.0°C 84% 1.1 mph ESE1.8 kmh ESE 3.4 mph5.5 kmh 29.62 in1003.0 mb 0.00 in0.0 mm 0.00 in0.0 mm 0.00 in0.0 mm
09:35 PM 37.9°F3.3°C 33.8°F1.0°C 84% 1.1 mph SE1.8 kmh SE 2.9 mph4.7 kmh 29.62 in1003.0 mb 0.00 in0.0 mm 0.00 in0.0 mm 0.00 in0.0 mm
09:40 PM 37.9°F3.3°C 33.8°F1.0°C 84% 1.1 mph SE1.8 kmh SE 2.5 mph4.0 kmh 29.62 in1003.0 mb 0.00 in0.0 mm 0.00 in0.0 mm 0.00 in0.0 mm
09:45 PM 37.9°F3.3°C 33.8°F1.0°C 84% 1.1 mph ESE1.8 kmh ESE 2.2 mph3.5 kmh 29.62 in1003.0 mb 0.00 in0.0 mm 0.00 in0.0 mm 0.00 in0.0 mm
09:50 PM 37.9°F3.3°C 33.8°F1.0°C 84% 1.3 mph ESE2.1 kmh ESE 3.1 mph5.0 kmh 29.62 in1003.0 mb 0.00 in0.0 mm 0.00 in0.0 mm 0.00 in0.0 mm
09:55 PM 37.9°F3.3°C 33.8°F1.0°C 84% 1.3 mph SE2.1 kmh SE 3.1 mph5.0 kmh 29.62 in1003.0 mb 0.00 in0.0 mm 0.00 in0.0 mm 0.00 in0.0 mm
10:00 PM 37.8°F3.2°C 33.8°F1.0°C 84% 1.0 mph SE1.6 kmh SE 2.2 mph3.5 kmh 29.62 in1003.0 mb 0.00 in0.0 mm 0.00 in0.0 mm 0.00 in0.0 mm
10:05 PM 37.4°F3.0°C 33.8°F1.0°C 84% 0.6 mph ESE1.0 kmh ESE 1.3 mph2.1 kmh 29.62 in1003.0 mb 0.00 in0.0 mm 0.00 in0.0 mm 0.00 in0.0 mm
10:10 PM 37.0°F2.8°C 33.8°F1.0°C 84% 0.6 mph ESE1.0 kmh ESE 1.6 mph2.6 kmh 29.62 in1003.0 mb 0.00 in0.0 mm 0.00 in0.0 mm 0.00 in0.0 mm
10:15 PM 36.7°F2.6°C 32.0°F0.0°C 84% 0.2 mph E0.3 kmh E 1.6 mph2.6 kmh 29.62 in1003.0 mb 0.00 in0.0 mm 0.00 in0.0 mm 0.00 in0.0 mm
10:20 PM 37.0°F2.8°C 33.8°F1.0°C 85% Calm Calm -- 29.65 in1004.1 mb 0.00 in0.0 mm 0.00 in0.0 mm 0.00 in0.0 mm
10:25 PM 37.0°F2.8°C 33.8°F1.0°C 85% Calm Calm -- 29.65 in1004.1 mb 0.00 in0.0 mm 0.00 in0.0 mm 0.00 in0.0 mm
10:30 PM 37.0°F2.8°C 33.8°F1.0°C 85% 0.1 mph E0.2 kmh E 0.9 mph1.4 kmh 29.65 in1004.1 mb 0.00 in0.0 mm 0.00 in0.0 mm 0.00 in0.0 mm
10:35 PM 37.0°F2.8°C 33.8°F1.0°C 85% 0.6 mph ESE1.0 kmh ESE 2.7 mph4.3 kmh 29.65 in1004.1 mb 0.00 in0.0 mm 0.00 in0.0 mm 0.00 in0.0 mm
10:40 PM 37.2°F2.9°C 33.8°F1.0°C 85% 1.0 mph SE1.6 kmh SE 2.7 mph4.3 kmh 29.65 in1004.1 mb 0.00 in0.0 mm 0.00 in0.0 mm 0.00 in0.0 mm
10:45 PM 37.4°F3.0°C 33.8°F1.0°C 85% 0.8 mph SE1.3 kmh SE 2.0 mph3.2 kmh 29.65 in1004.1 mb 0.00 in0.0 mm 0.00 in0.0 mm 0.00 in0.0 mm
10:50 PM 37.4°F3.0°C 33.8°F1.0°C 85% 0.2 mph SE0.3 kmh SE 2.0 mph3.2 kmh 29.65 in1004.1 mb 0.00 in0.0 mm 0.00 in0.0 mm 0.00 in0.0 mm
10:55 PM 37.4°F3.0°C 33.8°F1.0°C 85% Calm Calm -- 29.65 in1004.1 mb 0.00 in0.0 mm 0.00 in0.0 mm 0.00 in0.0 mm
11:00 PM 37.4°F3.0°C 33.8°F1.0°C 85% 0.1 mph E0.2 kmh E 1.1 mph1.8 kmh 29.65 in1004.1 mb 0.00 in0.0 mm 0.00 in0.0 mm 0.00 in0.0 mm
11:05 PM 37.6°F3.1°C 33.8°F1.0°C 85% 0.5 mph E0.8 kmh E 1.3 mph2.1 kmh 29.65 in1004.1 mb 0.00 in0.0 mm 0.00 in0.0 mm 0.00 in0.0 mm
11:10 PM 37.6°F3.1°C 33.8°F1.0°C 85% 1.0 mph SE1.6 kmh SE 3.4 mph5.5 kmh 29.65 in1004.1 mb 0.00 in0.0 mm 0.00 in0.0 mm 0.00 in0.0 mm
11:15 PM 37.6°F3.1°C 33.8°F1.0°C 85% 0.8 mph SE1.3 kmh SE 3.4 mph5.5 kmh 29.65 in1004.1 mb 0.00 in0.0 mm 0.00 in0.0 mm 0.00 in0.0 mm
11:20 PM 37.6°F3.1°C 33.8°F1.0°C 85% 0.1 mph ENE0.2 kmh ENE 0.9 mph1.4 kmh 29.65 in1004.1 mb 0.00 in0.0 mm 0.00 in0.0 mm 0.00 in0.0 mm
11:25 PM 37.6°F3.1°C 33.8°F1.0°C 85% 0.1 mph SE0.2 kmh SE 0.9 mph1.4 kmh 29.65 in1004.1 mb 0.00 in0.0 mm 0.00 in0.0 mm 0.00 in0.0 mm
11:30 PM 37.6°F3.1°C 33.8°F1.0°C 85% 0.2 mph E0.3 kmh E 1.1 mph1.8 kmh 29.65 in1004.1 mb 0.00 in0.0 mm 0.00 in0.0 mm 0.00 in0.0 mm
11:35 PM 37.8°F3.2°C 33.8°F1.0°C 85% 0.3 mph ESE0.5 kmh ESE 1.1 mph1.8 kmh 29.65 in1004.1 mb 0.00 in0.0 mm 0.00 in0.0 mm 0.00 in0.0 mm
11:40 PM 37.8°F3.2°C 33.8°F1.0°C 85% 0.4 mph SSE0.6 kmh SSE 1.1 mph1.8 kmh 29.65 in1004.1 mb 0.00 in0.0 mm 0.00 in0.0 mm 0.00 in0.0 mm
11:45 PM 37.8°F3.2°C 33.8°F1.0°C 85% 0.3 mph S0.5 kmh S 1.1 mph1.8 kmh 29.65 in1004.1 mb 0.00 in0.0 mm 0.00 in0.0 mm 0.00 in0.0 mm
11:50 PM 37.8°F3.2°C 33.8°F1.0°C 85% 0.1 mph SSE0.2 kmh SSE 1.1 mph1.8 kmh 29.62 in1003.0 mb 0.00 in0.0 mm 0.00 in0.0 mm 0.00 in0.0 mm
11:55 PM 37.8°F3.2°C 33.8°F1.0°C 85% 0.2 mph SE0.3 kmh SE 1.1 mph1.8 kmh 29.62 in1003.0 mb 0.00 in0.0 mm 0.00 in0.0 mm 0.00 in0.0 mm